Time;durP1;ratioP1;P1;durP2;ratioP2;P2;SDS_P1;SDS_P2;PMS_P1;PMS_P2;Temp;Humidity;BMP_temperature;BMP_pressure;BME280_temperature;BME280_humidity;BME280_pressure;Samples;Min_cycle;Max_cycle;Signal;HPM_P1;HPM_P2
2022/10/19 00:01:21;;;;;;;65.03;40.78;;;;;;;23.74;47.14;101467.41;4967983;28;20586;-84
2022/10/19 00:03:51;;;;;;;71.82;41.63;;;;;;;23.75;47.47;101471.81;4977164;28;20485;-80
2022/10/19 00:06:24;;;;;;;67.03;41.22;;;;;;;23.71;48.12;101480.63;4969542;28;20054;-78
2022/10/19 00:08:55;;;;;;;67.75;40.58;;;;;;;23.69;48.50;101474.53;4972876;28;20039;-78
2022/10/19 00:11:24;;;;;;;67.88;42.22;;;;;;;23.66;48.22;101480.69;4974472;28;20504;-76
2022/10/19 00:13:53;;;;;;;73.97;44.00;;;;;;;23.65;48.05;101478.09;4973626;28;20492;-77
2022/10/19 00:16:22;;;;;;;73.68;45.65;;;;;;;23.57;47.77;101480.81;4977105;28;20130;-76
2022/10/19 00:18:50;;;;;;;81.82;46.50;;;;;;;23.45;47.31;101471.28;4972111;28;20102;-78
2022/10/19 00:21:20;;;;;;;81.72;46.67;;;;;;;23.38;47.73;101474.91;4955978;28;20103;-77
2022/10/19 00:23:50;;;;;;;83.30;48.00;;;;;;;23.35;48.33;101469.66;4966340;28;20496;-79
2022/10/19 00:26:20;;;;;;;84.13;50.58;;;;;;;23.31;47.58;101473.22;4964107;28;20046;-77
2022/10/19 00:28:49;;;;;;;87.05;51.03;;;;;;;23.26;47.82;101480.34;4966122;28;20047;-78
2022/10/19 00:31:18;;;;;;;88.70;47.63;;;;;;;23.23;48.04;101478.63;4957529;28;20046;-77
2022/10/19 00:33:47;;;;;;;85.45;48.08;;;;;;;23.18;47.84;101489.22;4963978;28;20049;-77
2022/10/19 00:36:21;;;;;;;78.18;46.10;;;;;;;23.13;48.66;101490.16;4973392;28;20060;-80
2022/10/19 00:38:50;;;;;;;86.43;49.42;;;;;;;23.08;48.23;101487.56;4967723;28;20117;-78
2022/10/19 00:41:22;;;;;;;80.20;47.90;;;;;;;23.02;48.54;101479.72;4965990;28;20058;-78
2022/10/19 00:43:56;;;;;;;83.32;46.17;;;;;;;22.92;49.10;101476.25;4968179;28;20071;-77
2022/10/19 00:46:25;;;;;;;75.30;47.92;;;;;;;22.83;50.28;101475.47;4965667;28;20105;-78
2022/10/19 00:49:00;;;;;;;88.68;46.53;;;;;;;22.73;50.24;101474.69;4969564;28;20050;-77
2022/10/19 00:51:30;;;;;;;78.38;48.45;;;;;;;22.64;50.45;101480.94;4976220;28;20050;-79
2022/10/19 00:54:01;;;;;;;80.72;47.38;;;;;;;22.58;50.37;101479.19;4969737;28;20054;-77
2022/10/19 00:56:31;;;;;;;102.72;47.90;;;;;;;22.51;51.02;101480.16;4962073;28;20491;-78
2022/10/19 00:59:00;;;;;;;83.78;44.55;;;;;;;22.37;52.87;101477.63;4969029;28;20409;-78
2022/10/19 01:01:29;;;;;;;86.25;47.05;;;;;;;22.21;54.17;101480.38;4971640;28;20504;-78
2022/10/19 01:03:58;;;;;;;79.50;44.42;;;;;;;22.10;55.28;101483.94;4964894;28;20058;-78
2022/10/19 01:06:27;;;;;;;91.95;49.15;;;;;;;22.02;55.56;101490.16;4971158;28;20058;-78
2022/10/19 01:08:55;;;;;;;77.95;46.28;;;;;;;21.89;55.81;101482.31;4965668;28;20047;-78
2022/10/19 01:11:39;;;;;;;77.63;46.92;;;;;;;21.77;56.30;101494.69;4969462;28;20114;-78
2022/10/19 01:14:23;;;;;;;75.50;46.75;;;;;;;21.65;55.88;101499.13;4972223;28;20058;-78
2022/10/19 01:17:01;;;;;;;88.18;46.15;;;;;;;21.53;56.44;101494.81;4967194;28;20125;-79
2022/10/19 01:20:08;;;;;;;88.90;46.58;;;;;;;21.41;56.49;101494.81;4974003;28;20046;-78
2022/10/19 01:22:55;;;;;;;85.93;47.88;;;;;;;21.31;56.82;101514.16;4962987;28;20046;-79
2022/10/19 01:25:36;;;;;;;81.43;48.15;;;;;;;21.20;56.77;101510.66;4978579;28;20046;-78
2022/10/19 01:28:19;;;;;;;85.07;49.88;;;;;;;21.09;57.49;101508.91;4970653;28;20054;-80
2022/10/19 01:30:56;;;;;;;119.05;53.22;;;;;;;20.98;58.19;101512.44;4962503;28;20058;-80
2022/10/19 01:33:41;;;;;;;83.45;47.75;;;;;;;20.80;58.63;101513.34;4968193;28;20043;-75
2022/10/19 01:36:21;;;;;;;79.70;49.08;;;;;;;20.67;58.67;101513.34;4965747;28;20051;-78
2022/10/19 01:38:53;;;;;;;80.00;49.60;;;;;;;20.54;58.96;101506.31;4972945;28;20483;-79
2022/10/19 01:41:29;;;;;;;85.90;49.25;;;;;;;20.44;60.08;101512.44;4964455;28;20106;-79
2022/10/19 01:44:02;;;;;;;82.15;48.40;;;;;;;20.34;61.09;101518.56;4971245;28;20085;-79
2022/10/19 01:46:37;;;;;;;83.97;48.30;;;;;;;20.23;61.72;101523.81;4967907;28;20062;-77
2022/10/19 01:49:12;;;;;;;84.03;48.45;;;;;;;20.15;62.10;101523.78;4969866;28;20699;-80
2022/10/19 01:51:45;;;;;;;86.43;52.50;;;;;;;20.07;61.86;101531.66;4966164;28;20055;-80
2022/10/19 01:54:17;;;;;;;82.38;49.50;;;;;;;19.98;62.40;101521.13;4963907;28;20055;-78
2022/10/19 01:56:48;;;;;;;85.82;49.80;;;;;;;19.88;62.86;101525.47;4960882;28;20978;-79
2022/10/19 01:59:19;;;;;;;79.13;49.55;;;;;;;19.78;63.02;101526.28;4965910;28;20062;-78
2022/10/19 02:01:51;;;;;;;84.15;49.17;;;;;;;19.73;64.05;101545.53;4971842;28;20055;-77
2022/10/19 02:04:22;;;;;;;85.25;50.38;;;;;;;19.65;64.38;101555.97;4978224;28;20046;-78
2022/10/19 02:06:52;;;;;;;87.03;49.33;;;;;;;19.54;64.79;101548.06;4969584;28;20051;-78
2022/10/19 02:09:21;;;;;;;81.57;49.30;;;;;;;19.46;64.99;101555.88;4975417;28;20105;-77
2022/10/19 02:11:55;;;;;;;83.28;50.10;;;;;;;19.37;65.29;101558.44;4974154;28;20055;-77
2022/10/19 02:14:29;;;;;;;80.20;46.83;;;;;;;19.31;64.89;101562.75;4979671;28;20046;-77
2022/10/19 02:17:03;;;;;;;85.95;50.17;;;;;;;19.20;65.21;101560.97;4974750;28;20093;-77
2022/10/19 02:19:32;;;;;;;82.05;45.67;;;;;;;19.11;66.28;101568.78;4979167;28;20054;-78
2022/10/19 02:22:00;;;;;;;74.50;47.85;;;;;;;19.04;66.42;101575.72;4977363;28;20121;-77
2022/10/19 02:24:29;;;;;;;75.88;37.97;;;;;;;18.98;66.72;101574.78;4975275;28;20053;-78
2022/10/19 02:26:59;;;;;;;77.97;41.80;;;;;;;18.89;66.89;101580.81;4971193;28;20047;-78
2022/10/19 02:29:28;;;;;;;81.78;47.30;;;;;;;18.81;67.61;101585.16;4968371;28;20054;-78
2022/10/19 02:31:56;;;;;;;78.10;49.35;;;;;;;18.75;67.68;101590.28;4957089;28;20062;-78
2022/10/19 02:34:27;;;;;;;84.50;47.83;;;;;;;18.65;67.89;101585.84;4966270;28;20050;-78
2022/10/19 02:36:56;;;;;;;75.05;37.03;;;;;;;18.56;68.33;101590.13;4964767;28;20559;-77
2022/10/19 02:39:25;;;;;;;65.13;35.42;;;;;;;18.51;68.07;101591.81;4969816;28;20655;-76
2022/10/19 02:41:59;;;;;;;72.78;39.90;;;;;;;18.43;68.14;101596.97;4971738;28;20532;-76
2022/10/19 02:44:31;;;;;;;80.32;42.15;;;;;;;18.32;68.63;101589.84;4970508;28;20060;-76
2022/10/19 02:47:04;;;;;;;76.47;39.58;;;;;;;18.23;69.83;101595.00;4976318;28;20051;-77
2022/10/19 02:49:37;;;;;;;74.22;42.70;;;;;;;18.17;69.40;101595.81;4982075;28;20042;-77
2022/10/19 02:52:07;;;;;;;74.75;42.90;;;;;;;18.11;70.43;101599.22;4972880;28;20054;-77
2022/10/19 02:54:35;;;;;;;68.55;35.95;;;;;;;18.05;70.39;101599.16;4980366;28;20042;-77
2022/10/19 02:57:15;;;;;;;70.32;35.65;;;;;;;17.99;70.86;101604.31;4972177;28;20516;-77
2022/10/19 02:59:44;;;;;;;67.18;36.47;;;;;;;17.92;71.25;101611.22;4969551;28;20050;-76
2022/10/19 03:02:12;;;;;;;73.32;36.08;;;;;;;17.87;71.60;101612.03;4967547;28;20055;-76
2022/10/19 03:04:43;;;;;;;76.68;42.83;;;;;;;17.79;71.97;101614.50;4968776;28;20462;-76
2022/10/19 03:07:13;;;;;;;62.95;34.58;;;;;;;17.73;71.57;101617.94;4972282;28;20055;-78
2022/10/19 03:09:42;;;;;;;67.68;34.70;;;;;;;17.65;71.45;101623.91;4965646;28;20050;-75
2022/10/19 03:12:11;;;;;;;70.13;33.50;;;;;;;17.53;71.59;101620.25;4955673;28;20056;-76
2022/10/19 03:14:39;;;;;;;75.22;37.88;;;;;;;17.46;72.51;101628.00;4969372;28;20666;-77
2022/10/19 03:17:08;;;;;;;68.55;34.97;;;;;;;17.42;73.22;101636.66;4979674;28;20545;-77
2022/10/19 03:19:37;;;;;;;75.78;38.13;;;;;;;17.35;73.52;101641.78;4976958;28;20054;-75
2022/10/19 03:22:08;;;;;;;58.58;31.63;;;;;;;17.31;73.87;101647.81;4957352;28;20054;-76
2022/10/19 03:24:36;;;;;;;64.57;31.60;;;;;;;17.27;74.47;101648.63;4969635;28;20058;-76
2022/10/19 03:27:05;;;;;;;65.78;33.38;;;;;;;17.20;73.07;101645.88;4965281;28;20102;-76
2022/10/19 03:29:33;;;;;;;60.67;32.65;;;;;;;17.15;73.53;101653.66;4967894;28;20361;-76
2022/10/19 03:32:02;;;;;;;64.57;31.98;;;;;;;17.06;74.13;101649.13;4961008;28;20146;-79
2022/10/19 03:34:30;;;;;;;69.40;28.80;;;;;;;17.03;73.65;101653.44;4972986;28;20050;-77
2022/10/19 03:36:59;;;;;;;59.05;29.17;;;;;;;16.98;74.43;101655.09;4972331;28;20055;-78
2022/10/19 03:39:29;;;;;;;65.15;29.55;;;;;;;16.91;74.63;101649.75;4970880;28;20047;-77
2022/10/19 03:41:58;;;;;;;61.17;32.35;;;;;;;16.90;74.23;101662.78;4973771;28;20059;-77
2022/10/19 03:44:26;;;;;;;65.53;30.85;;;;;;;16.86;74.69;101666.19;4972480;28;21193;-78
2022/10/19 03:46:55;;;;;;;63.03;32.53;;;;;;;16.82;75.63;101674.88;4974521;28;20046;-76
2022/10/19 03:49:23;;;;;;;65.25;34.85;;;;;;;16.76;74.93;101667.75;4967573;28;20075;-82
2022/10/19 03:51:52;;;;;;;83.10;35.63;;;;;;;16.70;75.02;101671.13;4979291;28;20050;-76
2022/10/19 03:54:20;;;;;;;60.97;32.25;;;;;;;16.66;75.72;101678.88;4964382;28;20089;-77
2022/10/19 03:56:51;;;;;;;70.60;31.73;;;;;;;16.57;76.55;101673.47;4969496;28;20548;-79
2022/10/19 03:59:20;;;;;;;67.00;32.25;;;;;;;16.52;77.14;101676.88;4975860;28;20487;-77
2022/10/19 04:01:49;;;;;;;63.88;32.08;;;;;;;16.48;77.33;101682.88;4970229;28;20065;-77
2022/10/19 04:04:19;;;;;;;58.85;31.13;;;;;;;16.47;76.93;101683.75;4969813;28;20050;-78
2022/10/19 04:06:49;;;;;;;60.78;29.90;;;;;;;16.43;77.33;101692.38;4969801;28;20516;-77
2022/10/19 04:09:20;;;;;;;60.63;28.75;;;;;;;16.41;77.58;101695.81;4968690;28;20051;-77
2022/10/19 04:11:50;;;;;;;63.55;27.70;;;;;;;16.37;76.49;101696.59;4966762;28;20053;-77
2022/10/19 04:14:21;;;;;;;64.03;28.73;;;;;;;16.27;76.87;101695.53;4968264;28;20058;-80
2022/10/19 04:16:49;;;;;;;68.20;30.30;;;;;;;16.19;76.91;101704.91;4977045;28;20134;-81
2022/10/19 04:19:18;;;;;;;64.13;30.05;;;;;;;16.14;77.66;101704.81;4965726;28;20135;-81
2022/10/19 04:21:49;;;;;;;66.47;31.70;;;;;;;16.09;77.80;101709.06;4963406;28;20629;-80
2022/10/19 04:24:19;;;;;;;65.63;32.80;;;;;;;16.07;78.59;101710.75;4974642;28;20054;-78
2022/10/19 04:26:52;;;;;;;65.00;31.20;;;;;;;16.04;78.71;101703.72;4967001;28;20161;-77
2022/10/19 04:29:22;;;;;;;67.90;33.28;;;;;;;16.02;78.21;101715.00;4966989;28;20489;-79
2022/10/19 04:31:51;;;;;;;63.22;31.20;;;;;;;15.98;78.46;101719.25;4967353;28;20575;-77
2022/10/19 04:34:20;;;;;;;66.70;29.55;;;;;;;15.96;79.43;101726.16;4965191;28;20042;-80
2022/10/19 04:36:49;;;;;;;63.65;32.30;;;;;;;15.94;79.01;101729.59;4965772;28;20051;-77
2022/10/19 04:39:17;;;;;;;64.72;30.10;;;;;;;15.90;78.86;101744.31;4965572;28;20054;-81
2022/10/19 04:41:46;;;;;;;62.10;29.35;;;;;;;15.86;78.90;101732.91;4962800;28;20058;-80
2022/10/19 04:44:16;;;;;;;68.82;31.13;;;;;;;15.85;79.69;101738.06;4969226;28;20135;-78
2022/10/19 04:46:45;;;;;;;69.90;31.50;;;;;;;15.80;78.98;101729.25;4966935;28;20495;-78
2022/10/19 04:49:13;;;;;;;59.78;31.02;;;;;;;15.75;78.55;101725.66;4973375;28;20568;-78
2022/10/19 04:51:42;;;;;;;66.43;30.63;;;;;;;15.69;78.75;101722.03;4968913;28;20046;-78
2022/10/19 04:54:10;;;;;;;66.10;32.33;;;;;;;15.64;79.56;101722.75;4976502;28;20472;-78
2022/10/19 04:56:40;;;;;;;64.75;29.15;;;;;;;15.61;79.36;101731.41;4971107;28;20074;-81
2022/10/19 04:59:10;;;;;;;57.78;29.55;;;;;;;15.57;79.14;101726.94;4969975;28;20042;-79
2022/10/19 05:01:41;;;;;;;70.82;31.63;;;;;;;15.55;79.71;101725.16;4972492;28;20050;-78
2022/10/19 05:04:11;;;;;;;66.10;31.05;;;;;;;15.52;80.21;101722.47;4971707;28;20615;-78
2022/10/19 05:06:40;;;;;;;67.20;29.50;;;;;;;15.48;80.10;101724.09;4968163;28;20047;-78
2022/10/19 05:09:09;;;;;;;61.17;28.33;;;;;;;15.46;80.67;101723.19;4977299;28;20054;-79
2022/10/19 05:11:37;;;;;;;71.95;30.13;;;;;;;15.33;79.99;101716.78;4974342;28;20051;-79
2022/10/19 05:14:06;;;;;;;62.78;29.98;;;;;;;15.40;80.74;101733.47;4973664;28;21181;-79
2022/10/19 05:16:34;;;;;;;64.72;30.13;;;;;;;15.37;80.68;101728.16;4966464;28;20050;-78
2022/10/19 05:19:04;;;;;;;57.35;27.02;;;;;;;15.35;80.41;101730.75;4965168;28;20050;-81
2022/10/19 05:21:33;;;;;;;64.38;27.83;;;;;;;15.31;79.67;101733.25;4956862;28;20528;-79
2022/10/19 05:24:02;;;;;;;54.15;26.67;;;;;;;15.20;80.17;101731.22;4971224;28;20140;-77
2022/10/19 05:26:32;;;;;;;57.90;28.55;;;;;;;15.15;80.34;101737.19;4977366;28;20049;-77
2022/10/19 05:29:03;;;;;;;63.55;27.48;;;;;;;15.12;79.96;101732.78;4965521;28;20055;-78
2022/10/19 05:31:33;;;;;;;52.10;26.50;;;;;;;15.08;80.35;101733.53;4972242;28;20082;-79
2022/10/19 05:34:03;;;;;;;55.33;25.85;;;;;;;14.99;81.25;101741.09;4966231;28;20069;-77
2022/10/19 05:36:35;;;;;;;55.60;26.00;;;;;;;14.90;81.70;101739.13;4966014;28;20051;-77
2022/10/19 05:39:06;;;;;;;53.85;27.45;;;;;;;14.86;81.91;101745.94;4970391;28;20058;-79
2022/10/19 05:41:34;;;;;;;70.50;32.15;;;;;;;14.81;81.96;101744.94;4976223;28;20058;-77
2022/10/19 05:44:15;;;;;;;63.03;30.40;;;;;;;14.76;82.02;101743.06;4973679;28;20043;-78
2022/10/19 05:46:51;;;;;;;53.00;26.30;;;;;;;14.73;82.26;101737.75;4969849;28;20046;-79
2022/10/19 05:49:23;;;;;;;52.80;27.83;;;;;;;14.74;82.82;101740.41;4963156;28;20055;-79
2022/10/19 05:51:53;;;;;;;49.83;27.40;;;;;;;14.73;82.32;101735.16;4965714;28;20039;-80
2022/10/19 05:54:21;;;;;;;49.10;27.38;;;;;;;14.71;81.86;101735.13;4972776;28;20054;-80
2022/10/19 05:56:50;;;;;;;68.85;27.92;;;;;;;14.68;81.96;101740.22;4972450;28;20054;-79
2022/10/19 05:59:21;;;;;;;58.55;28.75;;;;;;;14.64;82.56;101741.00;4960998;28;20055;-75
2022/10/19 06:01:49;;;;;;;60.22;28.05;;;;;;;14.61;82.92;101735.69;4969353;28;20059;-75
2022/10/19 06:04:18;;;;;;;51.42;26.13;;;;;;;14.59;83.12;101737.38;4964643;28;20043;-76
2022/10/19 06:06:46;;;;;;;52.78;25.13;;;;;;;14.58;82.31;101733.88;4977153;28;20058;-77
2022/10/19 06:09:17;;;;;;;66.82;28.70;;;;;;;14.56;82.19;101739.88;4971685;28;20050;-77
2022/10/19 06:11:45;;;;;;;64.22;27.85;;;;;;;14.54;82.33;101736.31;4976755;28;20050;-77
2022/10/19 06:14:16;;;;;;;57.75;27.92;;;;;;;14.53;82.50;101737.19;4968778;28;20051;-77
2022/10/19 06:16:46;;;;;;;60.55;25.77;;;;;;;14.50;82.96;101739.66;4969022;28;20086;-78
2022/10/19 06:19:14;;;;;;;54.33;27.40;;;;;;;14.47;83.52;101735.25;4963991;28;20145;-77
2022/10/19 06:21:46;;;;;;;59.13;29.17;;;;;;;14.43;83.64;101736.91;4963713;28;20054;-78
2022/10/19 06:24:16;;;;;;;58.03;28.75;;;;;;;14.41;83.42;101733.38;4966903;28;20051;-78
2022/10/19 06:26:44;;;;;;;60.72;30.88;;;;;;;14.30;82.84;101726.97;4963255;28;20105;-77
2022/10/19 06:29:13;;;;;;;61.38;28.15;;;;;;;14.32;83.35;101735.72;4969675;28;20065;-77
2022/10/19 06:31:41;;;;;;;54.17;26.15;;;;;;;14.30;84.15;101731.28;4966783;28;20682;-78
2022/10/19 06:34:10;;;;;;;52.05;26.27;;;;;;;14.29;83.93;101732.13;4966937;28;20054;-78
2022/10/19 06:36:38;;;;;;;60.35;28.75;;;;;;;14.24;83.98;101727.66;4969449;28;20129;-78
2022/10/19 06:39:07;;;;;;;60.15;28.50;;;;;;;14.21;85.24;101719.75;4964896;28;20042;-78
2022/10/19 06:41:37;;;;;;;61.17;26.98;;;;;;;14.19;85.69;101718.81;4966960;28;20246;-78
2022/10/19 06:44:06;;;;;;;53.45;24.48;;;;;;;14.17;84.91;101722.22;4973734;28;20059;-78
2022/10/19 06:46:34;;;;;;;64.22;27.67;;;;;;;14.13;84.86;101722.97;4973733;28;20057;-78
2022/10/19 06:49:03;;;;;;;53.95;24.65;;;;;;;14.09;85.21;101723.69;4973050;28;20050;-79
2022/10/19 06:51:32;;;;;;;68.38;29.30;;;;;;;14.07;85.09;101718.47;4972127;28;20050;-78
2022/10/19 06:54:01;;;;;;;52.95;26.50;;;;;;;14.04;85.61;101723.56;4970049;28;20104;-78
2022/10/19 06:56:30;;;;;;;57.25;28.23;;;;;;;14.01;85.26;101721.75;4960791;28;20047;-79
2022/10/19 06:59:00;;;;;;;55.30;27.02;;;;;;;13.99;85.52;101723.41;4978757;28;20046;-79
2022/10/19 07:01:29;;;;;;;65.40;29.75;;;;;;;13.94;84.52;101726.72;4967137;28;20492;-79
2022/10/19 07:03:57;;;;;;;63.55;28.98;;;;;;;13.91;85.42;101722.31;4965902;28;20043;-79
2022/10/19 07:06:28;;;;;;;65.93;29.13;;;;;;;13.88;84.70;101724.81;4965002;28;20054;-79
2022/10/19 07:08:56;;;;;;;57.55;26.52;;;;;;;13.84;85.04;101725.56;4972315;28;20138;-80
2022/10/19 07:11:25;;;;;;;58.53;28.00;;;;;;;13.83;85.96;101726.38;4968369;28;20129;-80
2022/10/19 07:13:54;;;;;;;61.17;28.77;;;;;;;13.82;85.89;101722.03;4970467;28;20098;-79
2022/10/19 07:16:24;;;;;;;59.85;28.75;;;;;;;13.80;86.01;101721.97;4971426;28;20058;-79
2022/10/19 07:18:55;;;;;;;56.03;27.92;;;;;;;13.77;86.03;101729.69;4980049;28;20080;-80
2022/10/19 07:21:26;;;;;;;61.75;29.75;;;;;;;13.73;85.26;101727.81;4969123;28;20058;-80
2022/10/19 07:23:55;;;;;;;54.08;26.77;;;;;;;13.71;85.56;101726.88;4971022;28;20046;-79
2022/10/19 07:26:26;;;;;;;55.67;26.13;;;;;;;13.70;85.09;101727.72;4970467;28;20047;-80
2022/10/19 07:28:56;;;;;;;46.92;24.23;;;;;;;13.68;85.32;101723.31;4972046;28;20137;-77
2022/10/19 07:31:28;;;;;;;50.58;25.38;;;;;;;13.66;85.37;101725.84;4977964;28;20042;-78
2022/10/19 07:33:58;;;;;;;54.73;28.73;;;;;;;13.62;86.14;101723.97;4973939;28;20088;-77
2022/10/19 07:36:27;;;;;;;56.67;28.30;;;;;;;13.59;86.07;101719.56;4969669;28;20407;-78
2022/10/19 07:38:56;;;;;;;60.25;26.42;;;;;;;13.56;86.02;101729.88;4968279;28;20556;-78
2022/10/19 07:41:26;;;;;;;57.95;28.48;;;;;;;13.54;86.41;101725.47;4977164;28;20051;-78
2022/10/19 07:43:56;;;;;;;57.97;25.42;;;;;;;13.47;86.62;101723.47;4967309;28;20088;-78
2022/10/19 07:46:32;;;;;;;54.55;24.48;;;;;;;13.49;87.15;101727.91;4968769;28;20050;-77
2022/10/19 07:49:00;;;;;;;60.78;28.27;;;;;;;13.47;87.37;101739.97;4974329;28;20050;-78
2022/10/19 07:51:29;;;;;;;54.45;27.55;;;;;;;13.45;88.03;101733.84;4966445;28;20117;-78
2022/10/19 07:53:58;;;;;;;53.45;27.15;;;;;;;13.42;87.67;101736.31;4969985;28;20055;-78
2022/10/19 07:56:28;;;;;;;57.40;25.48;;;;;;;13.38;86.24;101740.53;4969903;28;20047;-77
2022/10/19 07:58:59;;;;;;;62.75;26.02;;;;;;;13.28;87.12;101737.56;4970518;28;20091;-78
2022/10/19 08:01:30;;;;;;;52.97;25.88;;;;;;;13.23;87.60;101739.09;4975203;28;20055;-78
2022/10/19 08:04:01;;;;;;;45.97;22.60;;;;;;;13.23;87.45;101731.31;4973699;28;20051;-78
2022/10/19 08:06:30;;;;;;;54.60;23.77;;;;;;;13.19;86.93;101736.41;4977064;28;20960;-78
2022/10/19 08:08:58;;;;;;;52.08;25.92;;;;;;;13.13;86.60;101732.72;4971842;28;20058;-79
2022/10/19 08:11:29;;;;;;;58.80;25.25;;;;;;;13.05;86.67;101734.16;4967327;28;20487;-78
2022/10/19 08:13:58;;;;;;;52.67;24.02;;;;;;;12.97;88.05;101736.47;4965647;28;20050;-78
2022/10/19 08:16:31;;;;;;;60.00;26.08;;;;;;;12.91;88.02;101741.44;4969494;28;20082;-79
2022/10/19 08:19:02;;;;;;;54.47;25.45;;;;;;;12.86;87.60;101740.41;4966946;28;20096;-79
2022/10/19 08:21:31;;;;;;;56.35;25.83;;;;;;;12.81;88.13;101744.56;4977579;28;20502;-78
2022/10/19 08:24:00;;;;;;;48.33;24.40;;;;;;;12.77;88.31;101748.75;4964689;28;20586;-79
2022/10/19 08:26:30;;;;;;;50.17;25.25;;;;;;;12.75;87.48;101748.69;4971393;28;20407;-78
2022/10/19 08:29:02;;;;;;;50.83;24.25;;;;;;;12.74;88.02;101749.53;4962191;28;20110;-78
2022/10/19 08:31:32;;;;;;;49.95;24.95;;;;;;;12.70;87.87;101755.44;4972774;28;20631;-78
2022/10/19 08:34:01;;;;;;;47.30;23.85;;;;;;;12.66;87.77;101757.84;4972551;28;20664;-77
2022/10/19 08:36:31;;;;;;;55.03;24.38;;;;;;;12.60;88.63;101753.34;4974643;28;20073;-77
2022/10/19 08:39:00;;;;;;;51.80;24.08;;;;;;;12.52;89.24;101768.59;4970125;28;20129;-77
2022/10/19 08:41:36;;;;;;;52.85;25.17;;;;;;;12.45;89.09;101755.34;4973905;28;20062;-77
2022/10/19 08:44:20;;;;;;;44.97;21.40;;;;;;;12.40;89.41;101762.97;4962317;28;20740;-77
2022/10/19 08:47:00;;;;;;;47.28;23.83;;;;;;;12.34;88.95;101763.59;4970085;28;20058;-77
2022/10/19 08:49:30;;;;;;;65.50;28.42;;;;;;;12.29;89.69;101761.66;4969210;28;20047;-77
2022/10/19 08:52:02;;;;;;;60.33;26.55;;;;;;;12.29;89.35;101765.13;4974506;28;20112;-78
2022/10/19 08:54:38;;;;;;;53.88;25.38;;;;;;;12.30;89.35;101761.72;4967321;28;20693;-78
2022/10/19 08:57:17;;;;;;;56.38;27.13;;;;;;;12.32;89.51;101765.28;4972804;28;20070;-78
2022/10/19 08:59:52;;;;;;;62.67;25.33;;;;;;;12.34;89.11;101763.59;4964077;28;20887;-79
2022/10/19 09:02:34;;;;;;;54.60;24.77;;;;;;;12.35;88.93;101765.38;4973259;28;20618;-79
2022/10/19 09:05:19;;;;;;;52.80;24.33;;;;;;;12.33;88.10;101767.03;4968107;28;20106;-78
2022/10/19 09:07:51;;;;;;;50.85;24.70;;;;;;;12.34;88.08;101762.72;4964490;28;20408;-78
2022/10/19 09:10:25;;;;;;;52.28;25.02;;;;;;;12.32;88.12;101766.97;4975516;28;20059;-78
2022/10/19 09:12:59;;;;;;;57.72;25.58;;;;;;;12.30;88.73;101766.91;4964703;28;20162;-78
2022/10/19 09:15:34;;;;;;;56.85;24.42;;;;;;;12.28;89.27;101768.56;4968244;28;20049;-78
2022/10/19 09:18:06;;;;;;;50.53;24.25;;;;;;;12.28;89.19;101772.88;4962579;28;20054;-79
2022/10/19 09:20:39;;;;;;;48.45;23.92;;;;;;;12.19;88.32;101757.84;4968743;28;20105;-79
2022/10/19 09:23:23;;;;;;;49.47;25.15;;;;;;;12.20;89.01;101769.09;4975828;28;20054;-80
2022/10/19 09:25:53;;;;;;;48.55;22.77;;;;;;;12.20;90.41;101763.91;4966246;28;20512;-80
2022/10/19 09:28:44;;;;;;;43.67;20.70;;;;;;;12.20;90.32;101772.56;4970468;28;20050;-80
2022/10/19 09:31:16;;;;;;;44.85;21.48;;;;;;;12.20;89.38;101775.16;4966456;28;20058;-79
2022/10/19 09:33:52;;;;;;;44.88;19.15;;;;;;;12.17;89.85;101766.38;4968264;28;20065;-79
2022/10/19 09:36:21;;;;;;;45.20;21.42;;;;;;;12.14;89.91;101773.22;4970410;28;20101;-79
2022/10/19 09:38:50;;;;;;;46.10;21.85;;;;;;;12.13;90.29;101783.53;4968721;28;20139;-79
2022/10/19 09:41:21;;;;;;;41.95;19.00;;;;;;;12.13;90.74;101778.34;4970085;28;20058;-80
2022/10/19 09:43:54;;;;;;;42.25;17.60;;;;;;;12.12;91.02;101782.66;4968655;28;20647;-79
2022/10/19 09:46:35;;;;;;;33.03;18.02;;;;;;;12.09;92.05;101794.59;4975119;28;20551;-80
2022/10/19 09:49:06;;;;;;;41.22;18.50;;;;;;;12.08;91.85;101790.25;4978215;28;20112;-79
2022/10/19 09:51:49;;;;;;;35.58;16.73;;;;;;;12.07;90.80;101788.47;4978683;28;20178;-79
2022/10/19 09:54:33;;;;;;;;;;;;;;;12.07;90.87;101793.66;4966797;28;20050;-79
2022/10/19 09:57:03;;;;;;;30.63;16.80;;;;;;;12.03;90.88;101799.56;4970402;28;19953;-78
2022/10/19 09:59:34;;;;;;;35.22;17.05;;;;;;;12.01;91.29;101791.72;4974253;28;20057;-79
2022/10/19 10:02:16;;;;;;;33.35;16.05;;;;;;;11.99;91.16;101792.47;4967513;28;20074;-79
2022/10/19 10:04:56;;;;;;;37.88;17.00;;;;;;;11.98;90.71;101799.38;4969979;28;20492;-79
2022/10/19 10:07:30;;;;;;;38.78;17.05;;;;;;;11.94;90.39;101793.16;4975858;28;20489;-78
2022/10/19 10:09:59;;;;;;;36.95;18.95;;;;;;;11.89;91.35;101799.88;4974637;28;20046;-77
2022/10/19 10:12:28;;;;;;;44.13;20.60;;;;;;;11.82;91.62;101786.56;4971737;28;20051;-79
2022/10/19 10:14:56;;;;;;;41.35;20.95;;;;;;;11.77;91.53;101788.97;4974219;28;20649;-78
2022/10/19 10:17:31;;;;;;;45.88;20.67;;;;;;;11.71;91.56;101799.09;4977698;28;20113;-78
2022/10/19 10:20:25;;;;;;;38.75;19.42;;;;;;;11.60;91.01;101779.63;4969512;28;20054;-79
2022/10/19 10:22:57;;;;;;;47.00;19.50;;;;;;;11.65;90.30;101798.84;4973111;28;20054;-79
2022/10/19 10:25:28;;;;;;;38.95;19.92;;;;;;;11.67;89.62;101794.59;4967569;28;20101;-79
2022/10/19 10:28:00;;;;;;;38.97;19.40;;;;;;;11.65;89.79;101793.66;4968247;28;20051;-79
2022/10/19 10:30:34;;;;;;;45.47;20.05;;;;;;;11.66;89.25;101795.41;4968254;28;20066;-79
2022/10/19 10:33:03;;;;;;;38.30;17.73;;;;;;;11.68;89.56;101799.84;4964727;28;20114;-79
2022/10/19 10:35:36;;;;;;;32.95;16.77;;;;;;;11.68;88.84;101798.94;4971286;28;20047;-79
2022/10/19 10:38:15;;;;;;;32.95;15.77;;;;;;;11.69;89.34;101800.72;4970946;28;20073;-80
2022/10/19 10:40:52;;;;;;;39.53;17.52;;;;;;;11.69;89.30;101803.31;4972606;28;20793;-79
2022/10/19 10:43:33;;;;;;;39.42;16.70;;;;;;;11.68;89.34;101804.13;4966044;28;20114;-79
2022/10/19 10:46:06;;;;;;;39.72;15.25;;;;;;;11.69;89.65;101800.72;4974468;28;20073;-79
2022/10/19 10:48:39;;;;;;;36.35;17.13;;;;;;;11.67;90.53;101802.38;4973014;28;20894;-78
2022/10/19 10:51:21;;;;;;;32.85;15.00;;;;;;;11.56;90.21;101788.97;4975663;28;20054;-78
2022/10/19 10:53:50;;;;;;;31.23;15.80;;;;;;;11.56;89.90;101808.81;4974422;28;20113;-79
2022/10/19 10:56:25;;;;;;;25.15;12.40;;;;;;;11.52;90.31;101806.09;4980357;28;20038;-79
2022/10/19 10:59:00;;;;;;;31.58;13.95;;;;;;;11.52;90.42;101807.78;4975583;28;20051;-78
2022/10/19 11:01:31;;;;;;;25.98;13.15;;;;;;;11.51;90.17;101806.91;4970554;28;20047;-79
2022/10/19 11:04:05;;;;;;;49.60;21.65;;;;;;;11.50;90.81;101817.22;4973535;28;20114;-78
2022/10/19 11:06:41;;;;;;;38.17;19.38;;;;;;;11.37;89.72;101813.22;4975539;28;20073;-80
2022/10/19 11:09:16;;;;;;;41.67;20.25;;;;;;;11.28;89.25;101807.63;4970070;28;20412;-80
2022/10/19 11:11:47;;;;;;;46.10;18.17;;;;;;;11.19;89.58;101802.94;4973887;28;20594;-80
2022/10/19 11:14:27;;;;;;;44.95;19.65;;;;;;;11.04;88.93;101790.22;4974456;28;20122;-80
2022/10/19 11:16:59;;;;;;;50.72;22.42;;;;;;;11.04;88.44;101797.06;4976879;28;20502;-79
2022/10/19 11:19:31;;;;;;;47.42;21.17;;;;;;;10.98;89.04;101804.59;4961220;28;20047;-78
2022/10/19 11:22:23;;;;;;;44.07;21.57;;;;;;;10.92;89.13;101812.06;4948402;28;20058;-79
2022/10/19 11:25:06;;;;;;;50.90;20.00;;;;;;;10.86;89.55;101812.69;4958356;28;20053;-79
2022/10/19 11:27:44;;;;;;;39.92;17.50;;;;;;;10.87;90.43;101812.75;4961467;28;20050;-80
2022/10/19 11:30:15;;;;;;;46.25;20.85;;;;;;;10.88;89.71;101816.22;4957615;28;20043;-79